sensor_id;sensor_type;location;lat;lon;timestamp;temperature;humidity
212;DHT22;16228;48.800;9.002;2023-04-25T00:01:11;8.80;96.90
212;DHT22;16228;48.800;9.002;2023-04-25T00:03:39;8.80;96.90
212;DHT22;16228;48.800;9.002;2023-04-25T00:06:06;8.70;96.90
212;DHT22;16228;48.800;9.002;2023-04-25T00:08:34;8.70;96.90
212;DHT22;16228;48.800;9.002;2023-04-25T00:11:01;8.70;96.90
212;DHT22;16228;48.800;9.002;2023-04-25T00:13:28;8.60;96.90
212;DHT22;16228;48.800;9.002;2023-04-25T00:15:56;8.60;96.90
212;DHT22;16228;48.800;9.002;2023-04-25T00:18:23;8.60;96.90
212;DHT22;16228;48.800;9.002;2023-04-25T00:20:50;8.40;96.90
212;DHT22;16228;48.800;9.002;2023-04-25T00:23:17;8.50;96.90
212;DHT22;16228;48.800;9.002;2023-04-25T00:25:44;8.50;96.90
212;DHT22;16228;48.800;9.002;2023-04-25T00:28:12;8.50;96.90
212;DHT22;16228;48.800;9.002;2023-04-25T00:30:40;8.50;96.90
212;DHT22;16228;48.800;9.002;2023-04-25T00:33:09;8.50;96.90
212;DHT22;16228;48.800;9.002;2023-04-25T00:35:36;8.50;96.90
212;DHT22;16228;48.800;9.002;2023-04-25T00:38:04;8.50;96.90
212;DHT22;16228;48.800;9.002;2023-04-25T00:40:30;8.40;96.90
212;DHT22;16228;48.800;9.002;2023-04-25T00:42:57;8.40;96.90
212;DHT22;16228;48.800;9.002;2023-04-25T00:45:27;8.40;96.90
212;DHT22;16228;48.800;9.002;2023-04-25T00:47:55;8.30;96.90
212;DHT22;16228;48.800;9.002;2023-04-25T00:50:24;8.20;96.90
212;DHT22;16228;48.800;9.002;2023-04-25T00:52:51;8.20;96.90
212;DHT22;16228;48.800;9.002;2023-04-25T00:55:18;8.30;96.90
212;DHT22;16228;48.800;9.002;2023-04-25T00:57:46;8.30;96.90
212;DHT22;16228;48.800;9.002;2023-04-25T01:00:14;8.30;96.90
212;DHT22;16228;48.800;9.002;2023-04-25T01:02:41;8.30;96.90
212;DHT22;16228;48.800;9.002;2023-04-25T01:05:08;8.30;96.90
212;DHT22;16228;48.800;9.002;2023-04-25T01:07:37;8.30;96.90
212;DHT22;16228;48.800;9.002;2023-04-25T01:10:05;8.20;96.90
212;DHT22;16228;48.800;9.002;2023-04-25T01:12:33;8.10;96.90
212;DHT22;16228;48.800;9.002;2023-04-25T01:15:01;8.10;96.90
212;DHT22;16228;48.800;9.002;2023-04-25T01:17:28;8.10;96.90
212;DHT22;16228;48.800;9.002;2023-04-25T01:19:57;8.10;96.90
212;DHT22;16228;48.800;9.002;2023-04-25T01:22:25;8.10;96.90
212;DHT22;16228;48.800;9.002;2023-04-25T01:24:52;8.00;96.90
212;DHT22;16228;48.800;9.002;2023-04-25T01:27:20;8.00;96.90
212;DHT22;16228;48.800;9.002;2023-04-25T01:29:47;8.00;96.90
212;DHT22;16228;48.800;9.002;2023-04-25T01:32:14;8.00;96.90
212;DHT22;16228;48.800;9.002;2023-04-25T01:34:42;8.00;96.90
212;DHT22;16228;48.800;9.002;2023-04-25T01:37:09;8.00;96.90
212;DHT22;16228;48.800;9.002;2023-04-25T01:39:37;8.00;96.90
212;DHT22;16228;48.800;9.002;2023-04-25T01:42:04;8.00;96.90
212;DHT22;16228;48.800;9.002;2023-04-25T01:44:31;7.90;96.90
212;DHT22;16228;48.800;9.002;2023-04-25T01:46:58;7.90;96.90
212;DHT22;16228;48.800;9.002;2023-04-25T01:49:25;7.80;96.90
212;DHT22;16228;48.800;9.002;2023-04-25T01:51:52;7.80;96.90
212;DHT22;16228;48.800;9.002;2023-04-25T01:54:20;7.70;96.90
212;DHT22;16228;48.800;9.002;2023-04-25T01:56:51;7.80;96.90
212;DHT22;16228;48.800;9.002;2023-04-25T01:59:18;7.70;96.90
212;DHT22;16228;48.800;9.002;2023-04-25T02:01:47;7.80;96.90
212;DHT22;16228;48.800;9.002;2023-04-25T02:04:14;7.90;96.90
212;DHT22;16228;48.800;9.002;2023-04-25T02:06:41;7.90;96.90
212;DHT22;16228;48.800;9.002;2023-04-25T02:09:08;7.80;96.90
212;DHT22;16228;48.800;9.002;2023-04-25T02:11:35;7.80;96.90
212;DHT22;16228;48.800;9.002;2023-04-25T02:14:03;7.70;96.90
212;DHT22;16228;48.800;9.002;2023-04-25T02:16:30;7.70;96.90
212;DHT22;16228;48.800;9.002;2023-04-25T02:18:57;7.60;96.90
212;DHT22;16228;48.800;9.002;2023-04-25T02:21:24;7.50;96.90
212;DHT22;16228;48.800;9.002;2023-04-25T02:23:52;7.40;96.90
212;DHT22;16228;48.800;9.002;2023-04-25T02:26:19;7.30;96.90
212;DHT22;16228;48.800;9.002;2023-04-25T02:28:46;7.30;96.90
212;DHT22;16228;48.800;9.002;2023-04-25T02:31:14;7.30;96.90
212;DHT22;16228;48.800;9.002;2023-04-25T02:33:42;7.30;96.90
212;DHT22;16228;48.800;9.002;2023-04-25T02:36:09;7.50;96.90
212;DHT22;16228;48.800;9.002;2023-04-25T02:38:36;7.50;96.90
212;DHT22;16228;48.800;9.002;2023-04-25T02:41:03;7.50;96.90
212;DHT22;16228;48.800;9.002;2023-04-25T02:43:30;7.40;96.90
212;DHT22;16228;48.800;9.002;2023-04-25T02:45:57;7.40;96.90
212;DHT22;16228;48.800;9.002;2023-04-25T02:48:26;7.40;96.90
212;DHT22;16228;48.800;9.002;2023-04-25T02:50:54;7.40;96.90
212;DHT22;16228;48.800;9.002;2023-04-25T02:53:21;7.30;96.90
212;DHT22;16228;48.800;9.002;2023-04-25T02:55:47;7.30;96.90
212;DHT22;16228;48.800;9.002;2023-04-25T02:58:14;7.30;96.90
212;DHT22;16228;48.800;9.002;2023-04-25T03:00:42;7.30;96.90
212;DHT22;16228;48.800;9.002;2023-04-25T03:03:09;7.30;96.90
212;DHT22;16228;48.800;9.002;2023-04-25T03:05:37;7.30;96.90
212;DHT22;16228;48.800;9.002;2023-04-25T03:08:04;7.30;96.90
212;DHT22;16228;48.800;9.002;2023-04-25T03:10:31;7.30;96.90
212;DHT22;16228;48.800;9.002;2023-04-25T03:12:58;7.30;96.90
212;DHT22;16228;48.800;9.002;2023-04-25T03:15:25;7.30;96.90
212;DHT22;16228;48.800;9.002;2023-04-25T03:17:52;7.30;96.90
212;DHT22;16228;48.800;9.002;2023-04-25T03:20:19;7.30;96.90
212;DHT22;16228;48.800;9.002;2023-04-25T03:22:48;7.30;96.90
212;DHT22;16228;48.800;9.002;2023-04-25T03:25:15;7.30;96.90
212;DHT22;16228;48.800;9.002;2023-04-25T03:27:42;7.30;96.90
212;DHT22;16228;48.800;9.002;2023-04-25T03:30:09;7.30;96.90
212;DHT22;16228;48.800;9.002;2023-04-25T03:32:36;7.40;96.90
212;DHT22;16228;48.800;9.002;2023-04-25T03:35:04;7.50;96.90
212;DHT22;16228;48.800;9.002;2023-04-25T03:37:31;7.50;96.90
212;DHT22;16228;48.800;9.002;2023-04-25T03:39:59;7.50;96.90
212;DHT22;16228;48.800;9.002;2023-04-25T03:42:26;7.50;96.90
212;DHT22;16228;48.800;9.002;2023-04-25T03:44:53;7.60;96.90
212;DHT22;16228;48.800;9.002;2023-04-25T03:47:20;7.70;96.90
212;DHT22;16228;48.800;9.002;2023-04-25T03:49:47;7.80;96.90
212;DHT22;16228;48.800;9.002;2023-04-25T03:52:17;7.80;96.90
212;DHT22;16228;48.800;9.002;2023-04-25T03:54:44;7.80;96.90
212;DHT22;16228;48.800;9.002;2023-04-25T03:57:12;7.80;96.90
212;DHT22;16228;48.800;9.002;2023-04-25T03:59:39;7.80;96.90
212;DHT22;16228;48.800;9.002;2023-04-25T04:02:06;7.70;96.90
212;DHT22;16228;48.800;9.002;2023-04-25T04:04:33;7.60;96.90
212;DHT22;16228;48.800;9.002;2023-04-25T04:07:01;7.50;96.90
212;DHT22;16228;48.800;9.002;2023-04-25T04:09:28;7.40;96.90
212;DHT22;16228;48.800;9.002;2023-04-25T04:11:55;7.30;96.90
212;DHT22;16228;48.800;9.002;2023-04-25T04:14:23;7.30;96.90
212;DHT22;16228;48.800;9.002;2023-04-25T04:16:51;7.30;96.90
212;DHT22;16228;48.800;9.002;2023-04-25T04:19:18;7.20;96.90
212;DHT22;16228;48.800;9.002;2023-04-25T04:21:45;7.10;96.90
212;DHT22;16228;48.800;9.002;2023-04-25T04:24:12;7.10;96.90
212;DHT22;16228;48.800;9.002;2023-04-25T04:26:40;7.10;96.90
212;DHT22;16228;48.800;9.002;2023-04-25T04:29:10;7.20;96.90
212;DHT22;16228;48.800;9.002;2023-04-25T04:31:38;7.20;96.90
212;DHT22;16228;48.800;9.002;2023-04-25T04:34:05;7.30;96.90
212;DHT22;16228;48.800;9.002;2023-04-25T04:36:32;7.30;96.90
212;DHT22;16228;48.800;9.002;2023-04-25T04:38:59;7.30;96.90
212;DHT22;16228;48.800;9.002;2023-04-25T04:41:27;7.30;96.90
212;DHT22;16228;48.800;9.002;2023-04-25T04:43:54;7.50;96.90
212;DHT22;16228;48.800;9.002;2023-04-25T04:46:21;7.50;96.90
212;DHT22;16228;48.800;9.002;2023-04-25T04:48:51;7.70;96.90
212;DHT22;16228;48.800;9.002;2023-04-25T04:51:19;7.70;96.90
212;DHT22;16228;48.800;9.002;2023-04-25T04:53:46;7.80;96.90
212;DHT22;16228;48.800;9.002;2023-04-25T04:56:13;7.80;96.90
212;DHT22;16228;48.800;9.002;2023-04-25T04:58:40;7.90;96.90
212;DHT22;16228;48.800;9.002;2023-04-25T05:01:07;8.00;96.90
212;DHT22;16228;48.800;9.002;2023-04-25T05:03:34;8.00;96.90
212;DHT22;16228;48.800;9.002;2023-04-25T05:06:03;8.10;96.90
212;DHT22;16228;48.800;9.002;2023-04-25T05:08:31;8.20;96.90
212;DHT22;16228;48.800;9.002;2023-04-25T05:10:57;8.20;96.90
212;DHT22;16228;48.800;9.002;2023-04-25T05:13:24;8.30;96.90
212;DHT22;16228;48.800;9.002;2023-04-25T05:15:51;8.40;96.90
212;DHT22;16228;48.800;9.002;2023-04-25T05:18:18;8.30;96.90
212;DHT22;16228;48.800;9.002;2023-04-25T05:20:45;8.30;96.90
212;DHT22;16228;48.800;9.002;2023-04-25T05:23:14;8.30;96.90
212;DHT22;16228;48.800;9.002;2023-04-25T05:25:41;8.40;96.90
212;DHT22;16228;48.800;9.002;2023-04-25T05:28:08;8.40;96.90
212;DHT22;16228;48.800;9.002;2023-04-25T05:30:35;8.20;96.90
212;DHT22;16228;48.800;9.002;2023-04-25T05:33:02;8.30;96.90
212;DHT22;16228;48.800;9.002;2023-04-25T05:35:29;8.30;96.90
212;DHT22;16228;48.800;9.002;2023-04-25T05:37:56;8.40;96.90
212;DHT22;16228;48.800;9.002;2023-04-25T05:40:24;8.50;96.90
212;DHT22;16228;48.800;9.002;2023-04-25T05:42:51;8.50;96.90
212;DHT22;16228;48.800;9.002;2023-04-25T05:45:18;8.60;96.90
212;DHT22;16228;48.800;9.002;2023-04-25T05:47:45;8.60;96.90
212;DHT22;16228;48.800;9.002;2023-04-25T05:50:12;8.60;96.90
212;DHT22;16228;48.800;9.002;2023-04-25T05:52:39;8.70;96.90
212;DHT22;16228;48.800;9.002;2023-04-25T05:55:06;8.70;96.90
212;DHT22;16228;48.800;9.002;2023-04-25T05:57:35;8.70;96.90
212;DHT22;16228;48.800;9.002;2023-04-25T06:00:02;8.70;96.90
212;DHT22;16228;48.800;9.002;2023-04-25T06:02:34;8.70;96.90
212;DHT22;16228;48.800;9.002;2023-04-25T06:05:01;8.80;96.90
212;DHT22;16228;48.800;9.002;2023-04-25T06:07:29;8.70;96.90
212;DHT22;16228;48.800;9.002;2023-04-25T06:09:56;8.70;96.90
212;DHT22;16228;48.800;9.002;2023-04-25T06:12:23;8.70;96.90
212;DHT22;16228;48.800;9.002;2023-04-25T06:14:52;8.80;96.90
212;DHT22;16228;48.800;9.002;2023-04-25T06:17:18;8.70;96.90
212;DHT22;16228;48.800;9.002;2023-04-25T06:19:45;8.80;96.90
212;DHT22;16228;48.800;9.002;2023-04-25T06:22:12;8.70;96.90
212;DHT22;16228;48.800;9.002;2023-04-25T06:24:39;8.70;96.90
212;DHT22;16228;48.800;9.002;2023-04-25T06:27:06;8.70;96.90
212;DHT22;16228;48.800;9.002;2023-04-25T06:29:33;8.80;96.90
212;DHT22;16228;48.800;9.002;2023-04-25T06:32:02;8.90;96.90
212;DHT22;16228;48.800;9.002;2023-04-25T06:34:29;9.00;96.90
212;DHT22;16228;48.800;9.002;2023-04-25T06:36:56;9.10;96.90
212;DHT22;16228;48.800;9.002;2023-04-25T06:39:23;9.10;96.90
212;DHT22;16228;48.800;9.002;2023-04-25T06:41:51;9.10;96.90
212;DHT22;16228;48.800;9.002;2023-04-25T06:44:18;9.10;96.90
212;DHT22;16228;48.800;9.002;2023-04-25T06:46:46;9.20;96.90
212;DHT22;16228;48.800;9.002;2023-04-25T06:49:15;9.20;96.90
212;DHT22;16228;48.800;9.002;2023-04-25T06:51:42;9.20;96.90
212;DHT22;16228;48.800;9.002;2023-04-25T06:54:09;9.20;96.90
212;DHT22;16228;48.800;9.002;2023-04-25T06:56:36;9.30;96.90
212;DHT22;16228;48.800;9.002;2023-04-25T06:59:03;9.20;96.90
212;DHT22;16228;48.800;9.002;2023-04-25T07:01:30;9.20;96.90
212;DHT22;16228;48.800;9.002;2023-04-25T07:03:57;9.20;96.90
212;DHT22;16228;48.800;9.002;2023-04-25T07:06:25;9.20;96.90
212;DHT22;16228;48.800;9.002;2023-04-25T07:08:53;9.20;96.90
212;DHT22;16228;48.800;9.002;2023-04-25T07:11:21;9.20;96.90
212;DHT22;16228;48.800;9.002;2023-04-25T07:13:48;9.00;96.90
212;DHT22;16228;48.800;9.002;2023-04-25T07:16:16;9.10;96.90
212;DHT22;16228;48.800;9.002;2023-04-25T07:18:43;9.00;96.90
212;DHT22;16228;48.800;9.002;2023-04-25T07:21:10;9.00;96.90
212;DHT22;16228;48.800;9.002;2023-04-25T07:23:38;8.90;96.90
212;DHT22;16228;48.800;9.002;2023-04-25T07:26:06;9.00;96.90
212;DHT22;16228;48.800;9.002;2023-04-25T07:28:33;9.00;96.90
212;DHT22;16228;48.800;9.002;2023-04-25T07:31:00;8.90;96.90
212;DHT22;16228;48.800;9.002;2023-04-25T07:33:27;8.80;96.90
212;DHT22;16228;48.800;9.002;2023-04-25T07:35:55;8.70;96.90
212;DHT22;16228;48.800;9.002;2023-04-25T07:38:22;8.70;96.90
212;DHT22;16228;48.800;9.002;2023-04-25T07:40:50;8.80;96.90
212;DHT22;16228;48.800;9.002;2023-04-25T07:43:17;8.80;96.90
212;DHT22;16228;48.800;9.002;2023-04-25T07:45:45;8.80;96.90
212;DHT22;16228;48.800;9.002;2023-04-25T07:48:16;8.80;96.90
212;DHT22;16228;48.800;9.002;2023-04-25T07:50:44;8.90;96.90
212;DHT22;16228;48.800;9.002;2023-04-25T07:53:11;8.90;96.90
212;DHT22;16228;48.800;9.002;2023-04-25T07:55:38;8.90;96.90
212;DHT22;16228;48.800;9.002;2023-04-25T07:58:07;9.00;96.90
212;DHT22;16228;48.800;9.002;2023-04-25T08:00:34;8.90;96.90
212;DHT22;16228;48.800;9.002;2023-04-25T08:03:01;9.00;96.90
212;DHT22;16228;48.800;9.002;2023-04-25T08:05:29;9.00;96.90
212;DHT22;16228;48.800;9.002;2023-04-25T08:07:56;9.00;96.90
212;DHT22;16228;48.800;9.002;2023-04-25T08:10:24;9.00;96.90
212;DHT22;16228;48.800;9.002;2023-04-25T08:12:51;9.00;96.90
212;DHT22;16228;48.800;9.002;2023-04-25T08:15:19;9.00;96.90
212;DHT22;16228;48.800;9.002;2023-04-25T08:17:46;9.00;96.90
212;DHT22;16228;48.800;9.002;2023-04-25T08:20:13;9.00;96.90
212;DHT22;16228;48.800;9.002;2023-04-25T08:22:40;9.10;96.90
212;DHT22;16228;48.800;9.002;2023-04-25T08:25:08;9.10;96.90
212;DHT22;16228;48.800;9.002;2023-04-25T08:27:35;9.10;96.90
212;DHT22;16228;48.800;9.002;2023-04-25T08:30:02;9.10;96.90
212;DHT22;16228;48.800;9.002;2023-04-25T08:32:31;9.10;96.90
212;DHT22;16228;48.800;9.002;2023-04-25T08:34:59;9.10;96.90
212;DHT22;16228;48.800;9.002;2023-04-25T08:37:26;9.10;96.90
212;DHT22;16228;48.800;9.002;2023-04-25T08:39:53;9.10;96.90
212;DHT22;16228;48.800;9.002;2023-04-25T08:42:22;9.10;96.90
212;DHT22;16228;48.800;9.002;2023-04-25T08:44:50;9.00;96.90
212;DHT22;16228;48.800;9.002;2023-04-25T08:47:22;9.00;96.90
212;DHT22;16228;48.800;9.002;2023-04-25T08:49:51;9.00;96.90
212;DHT22;16228;48.800;9.002;2023-04-25T08:52:22;8.90;96.90
212;DHT22;16228;48.800;9.002;2023-04-25T08:54:49;9.00;96.90
212;DHT22;16228;48.800;9.002;2023-04-25T08:57:18;9.00;96.90
212;DHT22;16228;48.800;9.002;2023-04-25T08:59:46;9.10;96.90
212;DHT22;16228;48.800;9.002;2023-04-25T09:02:14;9.10;96.90
212;DHT22;16228;48.800;9.002;2023-04-25T09:04:43;9.10;96.90
212;DHT22;16228;48.800;9.002;2023-04-25T09:07:12;9.10;96.90
212;DHT22;16228;48.800;9.002;2023-04-25T09:09:41;9.20;96.90
212;DHT22;16228;48.800;9.002;2023-04-25T09:12:08;9.10;96.90
212;DHT22;16228;48.800;9.002;2023-04-25T09:14:35;9.10;96.90
212;DHT22;16228;48.800;9.002;2023-04-25T09:17:04;9.10;96.90
212;DHT22;16228;48.800;9.002;2023-04-25T09:19:34;9.10;96.90
212;DHT22;16228;48.800;9.002;2023-04-25T09:22:03;9.10;96.90
212;DHT22;16228;48.800;9.002;2023-04-25T09:24:37;9.00;96.90
212;DHT22;16228;48.800;9.002;2023-04-25T09:27:05;8.90;96.90
212;DHT22;16228;48.800;9.002;2023-04-25T09:29:33;8.90;96.90
212;DHT22;16228;48.800;9.002;2023-04-25T09:32:17;8.80;96.90
212;DHT22;16228;48.800;9.002;2023-04-25T09:34:46;8.70;96.90
212;DHT22;16228;48.800;9.002;2023-04-25T09:37:19;8.60;96.90
212;DHT22;16228;48.800;9.002;2023-04-25T09:39:49;8.50;96.90
212;DHT22;16228;48.800;9.002;2023-04-25T09:42:17;8.30;96.90
212;DHT22;16228;48.800;9.002;2023-04-25T09:44:45;8.30;96.90
212;DHT22;16228;48.800;9.002;2023-04-25T09:47:14;8.40;96.90
212;DHT22;16228;48.800;9.002;2023-04-25T09:49:42;8.40;96.90
212;DHT22;16228;48.800;9.002;2023-04-25T09:52:14;8.30;96.90
212;DHT22;16228;48.800;9.002;2023-04-25T09:54:41;8.40;96.90
212;DHT22;16228;48.800;9.002;2023-04-25T09:57:12;8.50;96.90
212;DHT22;16228;48.800;9.002;2023-04-25T09:59:43;8.70;96.90
212;DHT22;16228;48.800;9.002;2023-04-25T10:02:11;8.70;96.90
212;DHT22;16228;48.800;9.002;2023-04-25T10:04:39;8.80;96.90
212;DHT22;16228;48.800;9.002;2023-04-25T10:07:07;8.80;96.90
212;DHT22;16228;48.800;9.002;2023-04-25T10:09:37;8.90;96.90
212;DHT22;16228;48.800;9.002;2023-04-25T10:12:06;9.10;96.90
212;DHT22;16228;48.800;9.002;2023-04-25T10:14:35;9.30;96.90
212;DHT22;16228;48.800;9.002;2023-04-25T10:17:03;9.30;96.90
212;DHT22;16228;48.800;9.002;2023-04-25T10:19:30;9.40;96.90
212;DHT22;16228;48.800;9.002;2023-04-25T10:22:04;9.40;96.90
212;DHT22;16228;48.800;9.002;2023-04-25T10:24:31;9.10;96.90
212;DHT22;16228;48.800;9.002;2023-04-25T10:26:59;9.10;96.90
212;DHT22;16228;48.800;9.002;2023-04-25T10:29:27;8.90;96.90
212;DHT22;16228;48.800;9.002;2023-04-25T10:31:57;9.00;96.90
212;DHT22;16228;48.800;9.002;2023-04-25T10:34:25;9.00;96.90
212;DHT22;16228;48.800;9.002;2023-04-25T10:37:04;9.00;96.90
212;DHT22;16228;48.800;9.002;2023-04-25T10:39:32;9.00;96.90
212;DHT22;16228;48.800;9.002;2023-04-25T10:42:01;9.00;96.90
212;DHT22;16228;48.800;9.002;2023-04-25T10:44:29;8.80;96.90
212;DHT22;16228;48.800;9.002;2023-04-25T10:46:59;8.80;96.90
212;DHT22;16228;48.800;9.002;2023-04-25T10:49:32;8.60;96.90
212;DHT22;16228;48.800;9.002;2023-04-25T10:52:26;8.60;96.90
212;DHT22;16228;48.800;9.002;2023-04-25T10:54:54;8.50;96.90
212;DHT22;16228;48.800;9.002;2023-04-25T10:57:35;8.50;96.90
212;DHT22;16228;48.800;9.002;2023-04-25T11:00:20;8.50;96.90
212;DHT22;16228;48.800;9.002;2023-04-25T11:02:58;8.30;96.90
212;DHT22;16228;48.800;9.002;2023-04-25T11:05:31;8.40;96.90
212;DHT22;16228;48.800;9.002;2023-04-25T11:07:59;8.50;96.90
212;DHT22;16228;48.800;9.002;2023-04-25T11:10:27;8.60;96.90
212;DHT22;16228;48.800;9.002;2023-04-25T11:12:55;8.70;96.90
212;DHT22;16228;48.800;9.002;2023-04-25T11:15:22;8.70;96.90
212;DHT22;16228;48.800;9.002;2023-04-25T11:17:52;8.80;96.90
212;DHT22;16228;48.800;9.002;2023-04-25T11:20:20;8.70;96.90
212;DHT22;16228;48.800;9.002;2023-04-25T11:22:47;8.60;96.90
212;DHT22;16228;48.800;9.002;2023-04-25T11:25:15;8.80;96.90
212;DHT22;16228;48.800;9.002;2023-04-25T11:27:52;8.90;96.90
212;DHT22;16228;48.800;9.002;2023-04-25T11:30:20;9.00;96.90
212;DHT22;16228;48.800;9.002;2023-04-25T11:32:47;9.00;96.90
212;DHT22;16228;48.800;9.002;2023-04-25T11:35:16;9.20;96.90
212;DHT22;16228;48.800;9.002;2023-04-25T11:37:43;9.20;96.90
212;DHT22;16228;48.800;9.002;2023-04-25T11:40:11;9.30;96.90
212;DHT22;16228;48.800;9.002;2023-04-25T11:42:38;9.30;96.90
212;DHT22;16228;48.800;9.002;2023-04-25T11:45:06;9.30;96.90
212;DHT22;16228;48.800;9.002;2023-04-25T11:47:34;9.30;96.90
212;DHT22;16228;48.800;9.002;2023-04-25T11:50:01;9.30;96.90
212;DHT22;16228;48.800;9.002;2023-04-25T11:52:37;9.30;96.90
212;DHT22;16228;48.800;9.002;2023-04-25T11:55:06;9.30;96.90
212;DHT22;16228;48.800;9.002;2023-04-25T11:57:34;9.30;96.90
212;DHT22;16228;48.800;9.002;2023-04-25T12:00:09;9.20;96.90
212;DHT22;16228;48.800;9.002;2023-04-25T12:02:41;9.30;96.90
212;DHT22;16228;48.800;9.002;2023-04-25T12:05:08;9.40;96.90
212;DHT22;16228;48.800;9.002;2023-04-25T12:07:37;9.30;96.90
212;DHT22;16228;48.800;9.002;2023-04-25T12:10:05;9.40;96.90
212;DHT22;16228;48.800;9.002;2023-04-25T12:12:33;9.50;96.90
212;DHT22;16228;48.800;9.002;2023-04-25T12:15:09;9.80;96.90
212;DHT22;16228;48.800;9.002;2023-04-25T12:17:36;10.20;96.90
212;DHT22;16228;48.800;9.002;2023-04-25T12:20:09;10.20;96.90
212;DHT22;16228;48.800;9.002;2023-04-25T12:22:37;10.30;96.90
212;DHT22;16228;48.800;9.002;2023-04-25T12:25:10;10.50;96.90
212;DHT22;16228;48.800;9.002;2023-04-25T12:27:38;10.70;96.90
212;DHT22;16228;48.800;9.002;2023-04-25T12:30:07;10.90;96.90
212;DHT22;16228;48.800;9.002;2023-04-25T12:32:36;11.10;96.90
212;DHT22;16228;48.800;9.002;2023-04-25T12:35:04;11.00;96.90
212;DHT22;16228;48.800;9.002;2023-04-25T12:37:32;11.00;96.90
212;DHT22;16228;48.800;9.002;2023-04-25T12:40:00;11.00;96.90
212;DHT22;16228;48.800;9.002;2023-04-25T12:42:28;10.90;96.90
212;DHT22;16228;48.800;9.002;2023-04-25T12:44:55;10.50;96.90
212;DHT22;16228;48.800;9.002;2023-04-25T12:47:22;10.70;96.90
212;DHT22;16228;48.800;9.002;2023-04-25T12:49:49;11.30;96.90
212;DHT22;16228;48.800;9.002;2023-04-25T12:52:16;11.80;96.90
212;DHT22;16228;48.800;9.002;2023-04-25T12:54:43;12.40;96.90
212;DHT22;16228;48.800;9.002;2023-04-25T12:57:11;12.40;96.90
212;DHT22;16228;48.800;9.002;2023-04-25T12:59:38;12.90;96.90
212;DHT22;16228;48.800;9.002;2023-04-25T13:02:05;13.30;96.90
212;DHT22;16228;48.800;9.002;2023-04-25T13:04:32;13.60;96.90
212;DHT22;16228;48.800;9.002;2023-04-25T13:06:59;13.70;96.90
212;DHT22;16228;48.800;9.002;2023-04-25T13:09:26;13.90;96.90
212;DHT22;16228;48.800;9.002;2023-04-25T13:11:53;13.70;96.90
212;DHT22;16228;48.800;9.002;2023-04-25T13:14:21;13.50;96.90
212;DHT22;16228;48.800;9.002;2023-04-25T13:16:48;12.90;96.90
212;DHT22;16228;48.800;9.002;2023-04-25T13:19:16;12.30;96.90
212;DHT22;16228;48.800;9.002;2023-04-25T13:21:43;12.20;96.90
212;DHT22;16228;48.800;9.002;2023-04-25T13:24:10;11.80;96.90
212;DHT22;16228;48.800;9.002;2023-04-25T13:26:37;11.50;96.90
212;DHT22;16228;48.800;9.002;2023-04-25T13:29:04;11.60;96.90
212;DHT22;16228;48.800;9.002;2023-04-25T13:31:32;11.80;96.90
212;DHT22;16228;48.800;9.002;2023-04-25T13:33:59;12.30;96.90
212;DHT22;16228;48.800;9.002;2023-04-25T13:36:26;12.50;96.90
212;DHT22;16228;48.800;9.002;2023-04-25T13:38:53;12.40;96.90
212;DHT22;16228;48.800;9.002;2023-04-25T13:41:20;12.30;96.90
212;DHT22;16228;48.800;9.002;2023-04-25T13:43:47;12.20;96.90
212;DHT22;16228;48.800;9.002;2023-04-25T13:46:14;12.30;96.90
212;DHT22;16228;48.800;9.002;2023-04-25T13:48:43;12.40;96.90
212;DHT22;16228;48.800;9.002;2023-04-25T13:51:14;14.20;96.90
212;DHT22;16228;48.800;9.002;2023-04-25T13:53:42;16.40;96.90
212;DHT22;16228;48.800;9.002;2023-04-25T13:56:09;17.40;96.90
212;DHT22;16228;48.800;9.002;2023-04-25T13:58:37;17.60;95.60
212;DHT22;16228;48.800;9.002;2023-04-25T14:01:04;17.30;96.40
212;DHT22;16228;48.800;9.002;2023-04-25T14:03:31;16.50;95.20
212;DHT22;16228;48.800;9.002;2023-04-25T14:05:59;15.20;96.90
212;DHT22;16228;48.800;9.002;2023-04-25T14:08:26;14.60;96.90
212;DHT22;16228;48.800;9.002;2023-04-25T14:10:54;14.30;96.90
212;DHT22;16228;48.800;9.002;2023-04-25T14:13:21;14.40;96.90
212;DHT22;16228;48.800;9.002;2023-04-25T14:15:49;14.40;96.90
212;DHT22;16228;48.800;9.002;2023-04-25T14:18:17;14.30;96.90
212;DHT22;16228;48.800;9.002;2023-04-25T14:20:45;14.00;96.90
212;DHT22;16228;48.800;9.002;2023-04-25T14:23:13;13.80;96.90
212;DHT22;16228;48.800;9.002;2023-04-25T14:25:40;13.50;96.90
212;DHT22;16228;48.800;9.002;2023-04-25T14:28:07;13.50;96.90
212;DHT22;16228;48.800;9.002;2023-04-25T14:30:34;13.50;96.90
212;DHT22;16228;48.800;9.002;2023-04-25T14:33:01;13.50;96.90
212;DHT22;16228;48.800;9.002;2023-04-25T14:35:28;13.50;96.90
212;DHT22;16228;48.800;9.002;2023-04-25T14:37:55;13.50;96.90
212;DHT22;16228;48.800;9.002;2023-04-25T14:40:26;13.60;96.90
212;DHT22;16228;48.800;9.002;2023-04-25T14:42:53;13.50;96.90
212;DHT22;16228;48.800;9.002;2023-04-25T14:45:20;13.60;96.90
212;DHT22;16228;48.800;9.002;2023-04-25T14:47:47;13.60;96.90
212;DHT22;16228;48.800;9.002;2023-04-25T14:50:14;13.90;96.90
212;DHT22;16228;48.800;9.002;2023-04-25T14:52:41;13.70;96.90
212;DHT22;16228;48.800;9.002;2023-04-25T14:55:08;13.50;96.90
212;DHT22;16228;48.800;9.002;2023-04-25T14:57:37;13.40;96.90
212;DHT22;16228;48.800;9.002;2023-04-25T15:00:05;13.20;96.90
212;DHT22;16228;48.800;9.002;2023-04-25T15:02:35;13.00;96.90
212;DHT22;16228;48.800;9.002;2023-04-25T15:05:02;13.10;96.90
212;DHT22;16228;48.800;9.002;2023-04-25T15:07:29;13.30;96.90
212;DHT22;16228;48.800;9.002;2023-04-25T15:09:56;13.30;96.90
212;DHT22;16228;48.800;9.002;2023-04-25T15:12:23;13.30;96.90
212;DHT22;16228;48.800;9.002;2023-04-25T15:14:53;13.30;96.90
212;DHT22;16228;48.800;9.002;2023-04-25T15:17:20;13.40;96.90
212;DHT22;16228;48.800;9.002;2023-04-25T15:19:47;13.50;96.90
212;DHT22;16228;48.800;9.002;2023-04-25T15:22:14;13.40;96.90
212;DHT22;16228;48.800;9.002;2023-04-25T15:24:41;13.10;96.90
212;DHT22;16228;48.800;9.002;2023-04-25T15:27:08;13.10;96.90
212;DHT22;16228;48.800;9.002;2023-04-25T15:29:35;13.20;96.90
212;DHT22;16228;48.800;9.002;2023-04-25T15:32:03;13.30;96.90
212;DHT22;16228;48.800;9.002;2023-04-25T15:34:31;13.70;96.90
212;DHT22;16228;48.800;9.002;2023-04-25T15:36:58;13.70;96.90
212;DHT22;16228;48.800;9.002;2023-04-25T15:39:24;13.70;96.90
212;DHT22;16228;48.800;9.002;2023-04-25T15:41:51;13.50;96.90
212;DHT22;16228;48.800;9.002;2023-04-25T15:44:18;13.30;96.90
212;DHT22;16228;48.800;9.002;2023-04-25T15:46:45;13.10;96.90
212;DHT22;16228;48.800;9.002;2023-04-25T15:49:14;13.10;96.90
212;DHT22;16228;48.800;9.002;2023-04-25T15:51:41;13.20;96.90
212;DHT22;16228;48.800;9.002;2023-04-25T15:54:08;13.10;96.90
212;DHT22;16228;48.800;9.002;2023-04-25T15:56:35;13.10;96.90
212;DHT22;16228;48.800;9.002;2023-04-25T15:59:02;12.90;96.90
212;DHT22;16228;48.800;9.002;2023-04-25T16:01:29;12.70;96.90
212;DHT22;16228;48.800;9.002;2023-04-25T16:03:56;12.60;96.90
212;DHT22;16228;48.800;9.002;2023-04-25T16:06:25;12.40;96.90
212;DHT22;16228;48.800;9.002;2023-04-25T16:08:53;12.20;96.90
212;DHT22;16228;48.800;9.002;2023-04-25T16:11:21;12.20;96.90
212;DHT22;16228;48.800;9.002;2023-04-25T16:13:47;12.20;96.90
212;DHT22;16228;48.800;9.002;2023-04-25T16:16:14;12.30;96.90
212;DHT22;16228;48.800;9.002;2023-04-25T16:18:41;12.30;96.90